sensor_id;sensor_type;location;lat;lon;timestamp;P1;durP1;ratioP1;P2;durP2;ratioP2
5539;SDS011;2792;52.452;9.752;2024-03-02T00:01:22;10.23;;;8.00;;
5539;SDS011;2792;52.452;9.752;2024-03-02T00:03:49;12.80;;;8.83;;
5539;SDS011;2792;52.452;9.752;2024-03-02T00:06:19;11.90;;;8.63;;
5539;SDS011;2792;52.452;9.752;2024-03-02T00:08:46;14.20;;;7.97;;
5539;SDS011;2792;52.452;9.752;2024-03-02T00:11:12;12.07;;;8.40;;
5539;SDS011;2792;52.452;9.752;2024-03-02T00:13:41;10.37;;;7.70;;
5539;SDS011;2792;52.452;9.752;2024-03-02T00:16:07;13.87;;;8.60;;
5539;SDS011;2792;52.452;9.752;2024-03-02T00:18:34;9.90;;;7.33;;
5539;SDS011;2792;52.452;9.752;2024-03-02T00:21:01;12.00;;;9.30;;
5539;SDS011;2792;52.452;9.752;2024-03-02T00:23:31;10.80;;;7.70;;
5539;SDS011;2792;52.452;9.752;2024-03-02T00:25:57;13.00;;;8.93;;
5539;SDS011;2792;52.452;9.752;2024-03-02T00:28:25;13.57;;;9.70;;
5539;SDS011;2792;52.452;9.752;2024-03-02T00:30:55;13.23;;;9.10;;
5539;SDS011;2792;52.452;9.752;2024-03-02T00:33:23;12.60;;;8.73;;
5539;SDS011;2792;52.452;9.752;2024-03-02T00:35:50;12.33;;;8.70;;
5539;SDS011;2792;52.452;9.752;2024-03-02T00:38:17;11.70;;;8.60;;
5539;SDS011;2792;52.452;9.752;2024-03-02T00:40:45;16.60;;;9.43;;
5539;SDS011;2792;52.452;9.752;2024-03-02T00:43:18;12.23;;;9.27;;
5539;SDS011;2792;52.452;9.752;2024-03-02T00:46:08;13.27;;;8.80;;
5539;SDS011;2792;52.452;9.752;2024-03-02T00:48:35;12.67;;;8.60;;
5539;SDS011;2792;52.452;9.752;2024-03-02T00:51:02;11.70;;;8.97;;
5539;SDS011;2792;52.452;9.752;2024-03-02T00:53:30;13.53;;;9.07;;
5539;SDS011;2792;52.452;9.752;2024-03-02T00:55:58;10.83;;;8.47;;
5539;SDS011;2792;52.452;9.752;2024-03-02T00:58:25;14.13;;;9.13;;
5539;SDS011;2792;52.452;9.752;2024-03-02T01:00:52;13.37;;;9.60;;
5539;SDS011;2792;52.452;9.752;2024-03-02T01:03:18;13.57;;;9.00;;
5539;SDS011;2792;52.452;9.752;2024-03-02T01:05:45;12.23;;;8.77;;
5539;SDS011;2792;52.452;9.752;2024-03-02T01:08:12;14.10;;;9.43;;
5539;SDS011;2792;52.452;9.752;2024-03-02T01:10:38;14.47;;;9.57;;
5539;SDS011;2792;52.452;9.752;2024-03-02T01:13:06;13.73;;;9.30;;
5539;SDS011;2792;52.452;9.752;2024-03-02T01:15:33;14.43;;;10.10;;
5539;SDS011;2792;52.452;9.752;2024-03-02T01:17:59;17.37;;;9.73;;
5539;SDS011;2792;52.452;9.752;2024-03-02T01:20:26;17.33;;;10.40;;
5539;SDS011;2792;52.452;9.752;2024-03-02T01:22:53;14.23;;;8.77;;
5539;SDS011;2792;52.452;9.752;2024-03-02T01:25:20;14.07;;;10.77;;
5539;SDS011;2792;52.452;9.752;2024-03-02T01:27:46;14.47;;;9.90;;
5539;SDS011;2792;52.452;9.752;2024-03-02T01:30:15;13.33;;;9.40;;
5539;SDS011;2792;52.452;9.752;2024-03-02T01:32:41;16.30;;;10.33;;
5539;SDS011;2792;52.452;9.752;2024-03-02T01:35:08;14.83;;;10.67;;
5539;SDS011;2792;52.452;9.752;2024-03-02T01:37:34;15.80;;;10.90;;
5539;SDS011;2792;52.452;9.752;2024-03-02T01:40:01;18.13;;;10.50;;
5539;SDS011;2792;52.452;9.752;2024-03-02T01:42:33;14.93;;;10.50;;
5539;SDS011;2792;52.452;9.752;2024-03-02T01:45:00;16.37;;;11.17;;
5539;SDS011;2792;52.452;9.752;2024-03-02T01:47:27;16.07;;;10.20;;
5539;SDS011;2792;52.452;9.752;2024-03-02T01:49:54;14.70;;;10.27;;
5539;SDS011;2792;52.452;9.752;2024-03-02T01:52:20;16.00;;;10.57;;
5539;SDS011;2792;52.452;9.752;2024-03-02T01:54:47;13.33;;;9.60;;
5539;SDS011;2792;52.452;9.752;2024-03-02T01:57:13;15.40;;;10.50;;
5539;SDS011;2792;52.452;9.752;2024-03-02T01:59:40;14.57;;;9.60;;
5539;SDS011;2792;52.452;9.752;2024-03-02T02:02:06;15.70;;;9.93;;
5539;SDS011;2792;52.452;9.752;2024-03-02T02:04:34;17.47;;;11.50;;
5539;SDS011;2792;52.452;9.752;2024-03-02T02:07:01;16.43;;;10.70;;
5539;SDS011;2792;52.452;9.752;2024-03-02T02:09:27;17.70;;;10.67;;
5539;SDS011;2792;52.452;9.752;2024-03-02T02:11:54;18.30;;;12.57;;
5539;SDS011;2792;52.452;9.752;2024-03-02T02:14:20;16.30;;;10.90;;
5539;SDS011;2792;52.452;9.752;2024-03-02T02:16:47;17.20;;;10.20;;
5539;SDS011;2792;52.452;9.752;2024-03-02T02:19:14;19.33;;;12.27;;
5539;SDS011;2792;52.452;9.752;2024-03-02T02:21:43;14.83;;;10.83;;
5539;SDS011;2792;52.452;9.752;2024-03-02T02:24:10;18.50;;;10.70;;
5539;SDS011;2792;52.452;9.752;2024-03-02T02:26:38;18.13;;;11.53;;
5539;SDS011;2792;52.452;9.752;2024-03-02T02:29:04;18.50;;;11.17;;
5539;SDS011;2792;52.452;9.752;2024-03-02T02:31:36;16.70;;;12.03;;
5539;SDS011;2792;52.452;9.752;2024-03-02T02:34:03;17.40;;;11.20;;
5539;SDS011;2792;52.452;9.752;2024-03-02T02:36:29;17.40;;;11.13;;
5539;SDS011;2792;52.452;9.752;2024-03-02T02:38:57;17.70;;;10.73;;
5539;SDS011;2792;52.452;9.752;2024-03-02T02:41:28;15.43;;;10.57;;
5539;SDS011;2792;52.452;9.752;2024-03-02T02:43:54;17.90;;;12.00;;
5539;SDS011;2792;52.452;9.752;2024-03-02T02:46:21;20.50;;;13.80;;
5539;SDS011;2792;52.452;9.752;2024-03-02T02:48:47;19.83;;;12.17;;
5539;SDS011;2792;52.452;9.752;2024-03-02T02:51:14;18.63;;;12.13;;
5539;SDS011;2792;52.452;9.752;2024-03-02T02:53:41;22.67;;;12.00;;
5539;SDS011;2792;52.452;9.752;2024-03-02T02:56:10;19.40;;;11.60;;
5539;SDS011;2792;52.452;9.752;2024-03-02T02:58:36;17.30;;;11.20;;
5539;SDS011;2792;52.452;9.752;2024-03-02T03:01:03;19.03;;;10.67;;
5539;SDS011;2792;52.452;9.752;2024-03-02T03:03:29;18.73;;;11.17;;
5539;SDS011;2792;52.452;9.752;2024-03-02T03:05:56;20.90;;;11.90;;
5539;SDS011;2792;52.452;9.752;2024-03-02T03:08:22;19.40;;;10.47;;
5539;SDS011;2792;52.452;9.752;2024-03-02T03:10:49;20.03;;;11.43;;
5539;SDS011;2792;52.452;9.752;2024-03-02T03:13:17;16.70;;;10.80;;
5539;SDS011;2792;52.452;9.752;2024-03-02T03:15:44;17.17;;;11.10;;
5539;SDS011;2792;52.452;9.752;2024-03-02T03:18:10;19.87;;;11.67;;
5539;SDS011;2792;52.452;9.752;2024-03-02T03:20:37;20.47;;;12.00;;
5539;SDS011;2792;52.452;9.752;2024-03-02T03:23:03;19.73;;;10.93;;
5539;SDS011;2792;52.452;9.752;2024-03-02T03:25:30;20.83;;;12.20;;
5539;SDS011;2792;52.452;9.752;2024-03-02T03:27:56;22.97;;;12.70;;
5539;SDS011;2792;52.452;9.752;2024-03-02T03:30:24;17.93;;;11.67;;
5539;SDS011;2792;52.452;9.752;2024-03-02T03:32:51;18.70;;;12.27;;
5539;SDS011;2792;52.452;9.752;2024-03-02T03:35:17;21.10;;;11.60;;
5539;SDS011;2792;52.452;9.752;2024-03-02T03:37:44;20.73;;;12.30;;
5539;SDS011;2792;52.452;9.752;2024-03-02T03:40:11;18.47;;;11.40;;
5539;SDS011;2792;52.452;9.752;2024-03-02T03:42:39;17.07;;;11.57;;
5539;SDS011;2792;52.452;9.752;2024-03-02T03:45:05;21.87;;;12.17;;
5539;SDS011;2792;52.452;9.752;2024-03-02T03:47:34;19.10;;;10.77;;
5539;SDS011;2792;52.452;9.752;2024-03-02T03:50:01;23.17;;;12.83;;
5539;SDS011;2792;52.452;9.752;2024-03-02T03:52:31;18.80;;;11.87;;
5539;SDS011;2792;52.452;9.752;2024-03-02T03:54:58;17.80;;;11.40;;
5539;SDS011;2792;52.452;9.752;2024-03-02T03:57:24;21.80;;;11.57;;
5539;SDS011;2792;52.452;9.752;2024-03-02T03:59:51;18.70;;;12.70;;
5539;SDS011;2792;52.452;9.752;2024-03-02T04:02:18;17.57;;;11.33;;
5539;SDS011;2792;52.452;9.752;2024-03-02T04:04:46;22.90;;;11.90;;
5539;SDS011;2792;52.452;9.752;2024-03-02T04:07:12;19.33;;;11.70;;
5539;SDS011;2792;52.452;9.752;2024-03-02T04:09:39;18.80;;;10.50;;
5539;SDS011;2792;52.452;9.752;2024-03-02T04:12:05;20.90;;;11.70;;
5539;SDS011;2792;52.452;9.752;2024-03-02T04:14:32;17.30;;;11.27;;
5539;SDS011;2792;52.452;9.752;2024-03-02T04:16:58;19.90;;;12.87;;
5539;SDS011;2792;52.452;9.752;2024-03-02T04:19:25;19.70;;;11.53;;
5539;SDS011;2792;52.452;9.752;2024-03-02T04:21:53;19.03;;;10.73;;
5539;SDS011;2792;52.452;9.752;2024-03-02T04:24:20;17.27;;;11.53;;
5539;SDS011;2792;52.452;9.752;2024-03-02T04:26:46;18.27;;;10.90;;
5539;SDS011;2792;52.452;9.752;2024-03-02T04:29:13;18.70;;;11.50;;
5539;SDS011;2792;52.452;9.752;2024-03-02T04:31:39;18.00;;;10.80;;
5539;SDS011;2792;52.452;9.752;2024-03-02T04:34:06;18.60;;;9.90;;
5539;SDS011;2792;52.452;9.752;2024-03-02T04:36:33;20.83;;;10.57;;
5539;SDS011;2792;52.452;9.752;2024-03-02T04:39:00;20.13;;;11.93;;
5539;SDS011;2792;52.452;9.752;2024-03-02T04:41:27;21.27;;;11.40;;
5539;SDS011;2792;52.452;9.752;2024-03-02T04:43:53;18.83;;;11.10;;
5539;SDS011;2792;52.452;9.752;2024-03-02T04:46:20;19.63;;;11.70;;
5539;SDS011;2792;52.452;9.752;2024-03-02T04:48:46;17.80;;;10.80;;
5539;SDS011;2792;52.452;9.752;2024-03-02T04:51:20;18.80;;;10.90;;
5539;SDS011;2792;52.452;9.752;2024-03-02T04:53:46;24.63;;;12.80;;
5539;SDS011;2792;52.452;9.752;2024-03-02T04:56:14;18.97;;;10.90;;
5539;SDS011;2792;52.452;9.752;2024-03-02T04:59:05;15.80;;;10.73;;
5539;SDS011;2792;52.452;9.752;2024-03-02T05:01:31;20.50;;;11.40;;
5539;SDS011;2792;52.452;9.752;2024-03-02T05:03:58;19.60;;;11.77;;
5539;SDS011;2792;52.452;9.752;2024-03-02T05:06:25;18.33;;;10.63;;
5539;SDS011;2792;52.452;9.752;2024-03-02T05:08:51;19.17;;;11.43;;
5539;SDS011;2792;52.452;9.752;2024-03-02T05:11:19;24.80;;;13.03;;
5539;SDS011;2792;52.452;9.752;2024-03-02T05:14:13;18.97;;;11.67;;
5539;SDS011;2792;52.452;9.752;2024-03-02T05:16:39;18.83;;;12.20;;
5539;SDS011;2792;52.452;9.752;2024-03-02T05:19:06;18.57;;;11.40;;
5539;SDS011;2792;52.452;9.752;2024-03-02T05:21:33;20.83;;;12.30;;
5539;SDS011;2792;52.452;9.752;2024-03-02T05:23:59;21.03;;;12.20;;
5539;SDS011;2792;52.452;9.752;2024-03-02T05:26:27;18.03;;;11.00;;
5539;SDS011;2792;52.452;9.752;2024-03-02T05:28:54;20.30;;;11.50;;
5539;SDS011;2792;52.452;9.752;2024-03-02T05:31:20;22.93;;;12.30;;
5539;SDS011;2792;52.452;9.752;2024-03-02T05:33:47;18.57;;;11.90;;
5539;SDS011;2792;52.452;9.752;2024-03-02T05:36:13;19.17;;;10.83;;
5539;SDS011;2792;52.452;9.752;2024-03-02T05:38:40;25.17;;;12.43;;
5539;SDS011;2792;52.452;9.752;2024-03-02T05:41:06;21.27;;;11.43;;
5539;SDS011;2792;52.452;9.752;2024-03-02T05:43:34;18.20;;;11.30;;
5539;SDS011;2792;52.452;9.752;2024-03-02T05:46:01;21.93;;;12.07;;
5539;SDS011;2792;52.452;9.752;2024-03-02T05:48:28;19.87;;;11.53;;
5539;SDS011;2792;52.452;9.752;2024-03-02T05:50:54;23.97;;;13.40;;
5539;SDS011;2792;52.452;9.752;2024-03-02T05:53:21;22.37;;;12.40;;
5539;SDS011;2792;52.452;9.752;2024-03-02T05:55:48;25.17;;;12.67;;
5539;SDS011;2792;52.452;9.752;2024-03-02T05:58:18;21.50;;;11.23;;
5539;SDS011;2792;52.452;9.752;2024-03-02T06:00:57;19.53;;;11.77;;
5539;SDS011;2792;52.452;9.752;2024-03-02T06:03:24;25.07;;;12.70;;
5539;SDS011;2792;52.452;9.752;2024-03-02T06:05:50;22.60;;;12.60;;
5539;SDS011;2792;52.452;9.752;2024-03-02T06:08:17;20.73;;;12.13;;
5539;SDS011;2792;52.452;9.752;2024-03-02T06:10:43;19.47;;;11.90;;
5539;SDS011;2792;52.452;9.752;2024-03-02T06:13:10;26.00;;;14.60;;
5539;SDS011;2792;52.452;9.752;2024-03-02T06:15:37;24.77;;;13.70;;
5539;SDS011;2792;52.452;9.752;2024-03-02T06:18:05;35.43;;;16.50;;
5539;SDS011;2792;52.452;9.752;2024-03-02T06:20:32;30.13;;;15.67;;
5539;SDS011;2792;52.452;9.752;2024-03-02T06:22:59;28.63;;;16.67;;
5539;SDS011;2792;52.452;9.752;2024-03-02T06:25:25;33.77;;;17.27;;
5539;SDS011;2792;52.452;9.752;2024-03-02T06:27:52;32.20;;;17.53;;
5539;SDS011;2792;52.452;9.752;2024-03-02T06:30:19;31.40;;;17.43;;
5539;SDS011;2792;52.452;9.752;2024-03-02T06:32:45;29.80;;;17.43;;
5539;SDS011;2792;52.452;9.752;2024-03-02T06:35:13;31.27;;;15.77;;
5539;SDS011;2792;52.452;9.752;2024-03-02T06:37:40;27.83;;;15.90;;
5539;SDS011;2792;52.452;9.752;2024-03-02T06:40:07;28.53;;;17.13;;
5539;SDS011;2792;52.452;9.752;2024-03-02T06:42:34;28.10;;;16.10;;
5539;SDS011;2792;52.452;9.752;2024-03-02T06:45:01;27.23;;;15.23;;
5539;SDS011;2792;52.452;9.752;2024-03-02T06:47:28;30.97;;;16.80;;
5539;SDS011;2792;52.452;9.752;2024-03-02T06:49:54;27.03;;;14.73;;
5539;SDS011;2792;52.452;9.752;2024-03-02T06:52:23;29.20;;;16.50;;
5539;SDS011;2792;52.452;9.752;2024-03-02T06:54:50;26.57;;;16.70;;
5539;SDS011;2792;52.452;9.752;2024-03-02T06:57:16;30.73;;;17.03;;
5539;SDS011;2792;52.452;9.752;2024-03-02T06:59:44;30.30;;;16.97;;
5539;SDS011;2792;52.452;9.752;2024-03-02T07:02:11;28.40;;;15.97;;
5539;SDS011;2792;52.452;9.752;2024-03-02T07:04:38;27.23;;;16.50;;
5539;SDS011;2792;52.452;9.752;2024-03-02T07:07:04;29.20;;;15.40;;
5539;SDS011;2792;52.452;9.752;2024-03-02T07:09:32;28.30;;;15.93;;
5539;SDS011;2792;52.452;9.752;2024-03-02T07:11:58;28.70;;;16.70;;
5539;SDS011;2792;52.452;9.752;2024-03-02T07:14:25;33.83;;;16.27;;
5539;SDS011;2792;52.452;9.752;2024-03-02T07:17:12;30.67;;;15.90;;
5539;SDS011;2792;52.452;9.752;2024-03-02T07:19:38;26.67;;;15.87;;
5539;SDS011;2792;52.452;9.752;2024-03-02T07:22:05;25.57;;;15.90;;
5539;SDS011;2792;52.452;9.752;2024-03-02T07:24:34;23.97;;;14.93;;
5539;SDS011;2792;52.452;9.752;2024-03-02T07:27:05;25.00;;;14.77;;
5539;SDS011;2792;52.452;9.752;2024-03-02T07:29:32;26.07;;;15.30;;
5539;SDS011;2792;52.452;9.752;2024-03-02T07:31:58;22.83;;;14.30;;
5539;SDS011;2792;52.452;9.752;2024-03-02T07:34:25;24.00;;;13.90;;
5539;SDS011;2792;52.452;9.752;2024-03-02T07:36:51;25.00;;;15.17;;
5539;SDS011;2792;52.452;9.752;2024-03-02T07:39:18;22.47;;;13.37;;
5539;SDS011;2792;52.452;9.752;2024-03-02T07:41:46;25.40;;;13.93;;
5539;SDS011;2792;52.452;9.752;2024-03-02T07:44:13;25.50;;;14.23;;
5539;SDS011;2792;52.452;9.752;2024-03-02T07:46:40;26.40;;;15.00;;
5539;SDS011;2792;52.452;9.752;2024-03-02T07:49:07;22.50;;;13.97;;
5539;SDS011;2792;52.452;9.752;2024-03-02T07:51:34;25.87;;;15.60;;
5539;SDS011;2792;52.452;9.752;2024-03-02T07:54:01;25.50;;;16.67;;
5539;SDS011;2792;52.452;9.752;2024-03-02T07:56:27;27.00;;;15.30;;
5539;SDS011;2792;52.452;9.752;2024-03-02T07:58:55;25.53;;;14.47;;
5539;SDS011;2792;52.452;9.752;2024-03-02T08:01:25;24.97;;;14.30;;
5539;SDS011;2792;52.452;9.752;2024-03-02T08:03:52;23.10;;;13.97;;
5539;SDS011;2792;52.452;9.752;2024-03-02T08:06:20;23.40;;;14.83;;
5539;SDS011;2792;52.452;9.752;2024-03-02T08:08:47;21.23;;;13.50;;
5539;SDS011;2792;52.452;9.752;2024-03-02T08:11:13;20.90;;;12.93;;
5539;SDS011;2792;52.452;9.752;2024-03-02T08:13:40;19.63;;;12.17;;
5539;SDS011;2792;52.452;9.752;2024-03-02T08:16:07;19.40;;;12.53;;
5539;SDS011;2792;52.452;9.752;2024-03-02T08:18:34;20.73;;;12.67;;
5539;SDS011;2792;52.452;9.752;2024-03-02T08:21:01;21.30;;;12.30;;
5539;SDS011;2792;52.452;9.752;2024-03-02T08:23:27;23.23;;;13.50;;
5539;SDS011;2792;52.452;9.752;2024-03-02T08:25:56;21.13;;;12.33;;
5539;SDS011;2792;52.452;9.752;2024-03-02T08:28:22;21.33;;;13.47;;
5539;SDS011;2792;52.452;9.752;2024-03-02T08:30:49;21.90;;;12.40;;
5539;SDS011;2792;52.452;9.752;2024-03-02T08:33:17;18.57;;;11.97;;
5539;SDS011;2792;52.452;9.752;2024-03-02T08:35:43;21.90;;;12.47;;
5539;SDS011;2792;52.452;9.752;2024-03-02T08:38:10;19.60;;;12.10;;
5539;SDS011;2792;52.452;9.752;2024-03-02T08:40:36;22.53;;;11.53;;
5539;SDS011;2792;52.452;9.752;2024-03-02T08:43:03;19.20;;;12.10;;
5539;SDS011;2792;52.452;9.752;2024-03-02T08:54:08;3.10;;;2.80;;
5539;SDS011;2792;52.452;9.752;2024-03-02T08:58:20;7.32;;;3.30;;
5539;SDS011;2792;52.452;9.752;2024-03-02T09:00:47;5.60;;;3.70;;
5539;SDS011;2792;52.452;9.752;2024-03-02T09:03:14;3.37;;;3.00;;
5539;SDS011;2792;52.452;9.752;2024-03-02T09:05:41;4.53;;;3.80;;
5539;SDS011;2792;52.452;9.752;2024-03-02T09:15:34;7.80;;;4.30;;
5539;SDS011;2792;52.452;9.752;2024-03-02T09:18:02;6.50;;;4.37;;
5539;SDS011;2792;52.452;9.752;2024-03-02T09:20:29;6.50;;;4.10;;
5539;SDS011;2792;52.452;9.752;2024-03-02T09:24:09;4.27;;;3.87;;
5539;SDS011;2792;52.452;9.752;2024-03-02T09:28:02;5.00;;;4.50;;
5539;SDS011;2792;52.452;9.752;2024-03-02T09:32:12;5.27;;;4.30;;
5539;SDS011;2792;52.452;9.752;2024-03-02T09:34:39;6.40;;;4.77;;
5539;SDS011;2792;52.452;9.752;2024-03-02T09:37:06;5.40;;;4.30;;
5539;SDS011;2792;52.452;9.752;2024-03-02T09:39:33;5.93;;;4.13;;
5539;SDS011;2792;52.452;9.752;2024-03-02T09:41:59;4.50;;;4.10;;
5539;SDS011;2792;52.452;9.752;2024-03-02T09:44:26;4.90;;;4.40;;
5539;SDS011;2792;52.452;9.752;2024-03-02T09:46:53;4.87;;;4.27;;
5539;SDS011;2792;52.452;9.752;2024-03-02T09:49:22;4.97;;;4.20;;
5539;SDS011;2792;52.452;9.752;2024-03-02T09:51:49;5.40;;;4.87;;
5539;SDS011;2792;52.452;9.752;2024-03-02T09:54:16;5.50;;;4.50;;
5539;SDS011;2792;52.452;9.752;2024-03-02T09:56:43;5.40;;;4.67;;
5539;SDS011;2792;52.452;9.752;2024-03-02T09:59:10;6.80;;;4.83;;
5539;SDS011;2792;52.452;9.752;2024-03-02T10:01:38;5.70;;;4.53;;
5539;SDS011;2792;52.452;9.752;2024-03-02T10:04:05;4.80;;;4.30;;
5539;SDS011;2792;52.452;9.752;2024-03-02T10:08:24;5.70;;;5.10;;
5539;SDS011;2792;52.452;9.752;2024-03-02T10:15:15;5.60;;;4.90;;
5539;SDS011;2792;52.452;9.752;2024-03-02T10:17:49;6.50;;;5.50;;
5539;SDS011;2792;52.452;9.752;2024-03-02T10:20:22;5.10;;;4.50;;
5539;SDS011;2792;52.452;9.752;2024-03-02T10:22:50;5.30;;;4.50;;
5539;SDS011;2792;52.452;9.752;2024-03-02T10:25:27;5.43;;;4.77;;
5539;SDS011;2792;52.452;9.752;2024-03-02T10:27:56;5.53;;;4.50;;
5539;SDS011;2792;52.452;9.752;2024-03-02T10:30:25;5.40;;;4.90;;
5539;SDS011;2792;52.452;9.752;2024-03-02T10:32:52;6.17;;;5.07;;
5539;SDS011;2792;52.452;9.752;2024-03-02T10:35:19;7.17;;;5.17;;
5539;SDS011;2792;52.452;9.752;2024-03-02T10:37:47;5.70;;;4.80;;
5539;SDS011;2792;52.452;9.752;2024-03-02T10:40:13;5.10;;;4.37;;
5539;SDS011;2792;52.452;9.752;2024-03-02T10:42:41;5.07;;;4.30;;
5539;SDS011;2792;52.452;9.752;2024-03-02T10:45:08;7.50;;;4.93;;
5539;SDS011;2792;52.452;9.752;2024-03-02T10:47:37;6.97;;;4.47;;
5539;SDS011;2792;52.452;9.752;2024-03-02T10:50:04;5.80;;;4.93;;
5539;SDS011;2792;52.452;9.752;2024-03-02T10:52:33;5.27;;;4.10;;
5539;SDS011;2792;52.452;9.752;2024-03-02T10:55:00;5.10;;;4.40;;
5539;SDS011;2792;52.452;9.752;2024-03-02T10:57:26;4.70;;;4.17;;
5539;SDS011;2792;52.452;9.752;2024-03-02T10:59:54;5.07;;;4.00;;
5539;SDS011;2792;52.452;9.752;2024-03-02T11:02:23;5.40;;;4.27;;
5539;SDS011;2792;52.452;9.752;2024-03-02T11:04:51;7.00;;;4.40;;
5539;SDS011;2792;52.452;9.752;2024-03-02T11:07:21;5.43;;;4.20;;
5539;SDS011;2792;52.452;9.752;2024-03-02T11:09:49;5.00;;;4.43;;
5539;SDS011;2792;52.452;9.752;2024-03-02T11:12:19;9.50;;;4.90;;
5539;SDS011;2792;52.452;9.752;2024-03-02T11:14:50;4.82;;;4.28;;
5539;SDS011;2792;52.452;9.752;2024-03-02T11:17:17;6.33;;;5.10;;
5539;SDS011;2792;52.452;9.752;2024-03-02T11:19:44;6.57;;;4.70;;
5539;SDS011;2792;52.452;9.752;2024-03-02T11:22:13;5.07;;;4.60;;
5539;SDS011;2792;52.452;9.752;2024-03-02T11:24:47;4.77;;;4.10;;
5539;SDS011;2792;52.452;9.752;2024-03-02T11:27:14;5.43;;;4.67;;
5539;SDS011;2792;52.452;9.752;2024-03-02T11:29:44;4.10;;;3.70;;
5539;SDS011;2792;52.452;9.752;2024-03-02T11:32:15;4.70;;;4.07;;
5539;SDS011;2792;52.452;9.752;2024-03-02T11:34:43;4.70;;;4.30;;
5539;SDS011;2792;52.452;9.752;2024-03-02T11:37:11;5.23;;;4.30;;
5539;SDS011;2792;52.452;9.752;2024-03-02T11:39:40;4.57;;;4.17;;
5539;SDS011;2792;52.452;9.752;2024-03-02T11:42:06;6.73;;;4.13;;
5539;SDS011;2792;52.452;9.752;2024-03-02T11:44:34;4.43;;;3.77;;
5539;SDS011;2792;52.452;9.752;2024-03-02T11:47:02;5.07;;;4.00;;
5539;SDS011;2792;52.452;9.752;2024-03-02T11:49:36;4.73;;;4.23;;
5539;SDS011;2792;52.452;9.752;2024-03-02T11:52:04;4.83;;;4.37;;
5539;SDS011;2792;52.452;9.752;2024-03-02T11:54:33;4.17;;;3.77;;
5539;SDS011;2792;52.452;9.752;2024-03-02T11:57:01;5.10;;;3.80;;
5539;SDS011;2792;52.452;9.752;2024-03-02T11:59:28;4.73;;;4.00;;
5539;SDS011;2792;52.452;9.752;2024-03-02T12:01:55;3.97;;;3.60;;
5539;SDS011;2792;52.452;9.752;2024-03-02T12:04:21;4.10;;;3.60;;
5539;SDS011;2792;52.452;9.752;2024-03-02T12:06:48;5.90;;;4.20;;
5539;SDS011;2792;52.452;9.752;2024-03-02T12:09:20;6.07;;;4.47;;
5539;SDS011;2792;52.452;9.752;2024-03-02T12:11:48;4.87;;;4.10;;
5539;SDS011;2792;52.452;9.752;2024-03-02T12:14:28;5.17;;;4.10;;
5539;SDS011;2792;52.452;9.752;2024-03-02T12:16:54;5.00;;;4.20;;
5539;SDS011;2792;52.452;9.752;2024-03-02T12:19:23;5.30;;;3.40;;
5539;SDS011;2792;52.452;9.752;2024-03-02T12:21:50;5.93;;;4.50;;
5539;SDS011;2792;52.452;9.752;2024-03-02T12:24:16;4.33;;;3.70;;
5539;SDS011;2792;52.452;9.752;2024-03-02T12:26:43;5.43;;;3.70;;
5539;SDS011;2792;52.452;9.752;2024-03-02T12:29:11;5.50;;;4.50;;
5539;SDS011;2792;52.452;9.752;2024-03-02T12:31:38;5.47;;;4.00;;
5539;SDS011;2792;52.452;9.752;2024-03-02T12:34:05;4.13;;;3.63;;
5539;SDS011;2792;52.452;9.752;2024-03-02T12:36:36;4.90;;;3.60;;
5539;SDS011;2792;52.452;9.752;2024-03-02T12:39:03;4.00;;;3.57;;
5539;SDS011;2792;52.452;9.752;2024-03-02T12:41:30;5.70;;;4.20;;
5539;SDS011;2792;52.452;9.752;2024-03-02T12:43:57;4.17;;;3.77;;
5539;SDS011;2792;52.452;9.752;2024-03-02T12:46:24;4.40;;;4.00;;
5539;SDS011;2792;52.452;9.752;2024-03-02T12:48:51;3.77;;;3.47;;
5539;SDS011;2792;52.452;9.752;2024-03-02T12:51:17;3.63;;;3.33;;
5539;SDS011;2792;52.452;9.752;2024-03-02T12:53:44;5.13;;;3.77;;
5539;SDS011;2792;52.452;9.752;2024-03-02T12:56:10;4.90;;;3.90;;
5539;SDS011;2792;52.452;9.752;2024-03-02T12:58:38;3.83;;;3.27;;
5539;SDS011;2792;52.452;9.752;2024-03-02T13:01:05;4.30;;;3.83;;
5539;SDS011;2792;52.452;9.752;2024-03-02T13:03:36;4.80;;;3.70;;
5539;SDS011;2792;52.452;9.752;2024-03-02T13:06:03;4.90;;;4.07;;
5539;SDS011;2792;52.452;9.752;2024-03-02T13:08:30;4.20;;;3.80;;
5539;SDS011;2792;52.452;9.752;2024-03-02T13:10:56;4.10;;;3.70;;
5539;SDS011;2792;52.452;9.752;2024-03-02T13:13:23;4.50;;;4.07;;
5539;SDS011;2792;52.452;9.752;2024-03-02T13:15:49;4.17;;;3.77;;
5539;SDS011;2792;52.452;9.752;2024-03-02T13:18:17;4.50;;;3.50;;
5539;SDS011;2792;52.452;9.752;2024-03-02T13:20:45;3.60;;;3.30;;
5539;SDS011;2792;52.452;9.752;2024-03-02T13:23:12;4.60;;;3.50;;
5539;SDS011;2792;52.452;9.752;2024-03-02T13:25:39;3.90;;;3.50;;
5539;SDS011;2792;52.452;9.752;2024-03-02T13:28:05;4.03;;;3.33;;
5539;SDS011;2792;52.452;9.752;2024-03-02T13:30:32;4.20;;;3.60;;
5539;SDS011;2792;52.452;9.752;2024-03-02T13:32:59;4.40;;;3.83;;
5539;SDS011;2792;52.452;9.752;2024-03-02T13:35:25;3.93;;;3.50;;
5539;SDS011;2792;52.452;9.752;2024-03-02T13:37:53;4.30;;;3.70;;
5539;SDS011;2792;52.452;9.752;2024-03-02T13:40:20;4.90;;;4.17;;
5539;SDS011;2792;52.452;9.752;2024-03-02T13:42:46;4.73;;;3.77;;
5539;SDS011;2792;52.452;9.752;2024-03-02T13:45:13;4.20;;;3.63;;
5539;SDS011;2792;52.452;9.752;2024-03-02T13:47:39;4.07;;;3.30;;
5539;SDS011;2792;52.452;9.752;2024-03-02T13:50:06;3.70;;;3.37;;
5539;SDS011;2792;52.452;9.752;2024-03-02T13:52:33;4.47;;;3.77;;
5539;SDS011;2792;52.452;9.752;2024-03-02T13:55:01;4.97;;;4.00;;
5539;SDS011;2792;52.452;9.752;2024-03-02T13:57:28;4.60;;;3.70;;
5539;SDS011;2792;52.452;9.752;2024-03-02T13:59:55;4.67;;;3.40;;
5539;SDS011;2792;52.452;9.752;2024-03-02T14:02:22;4.83;;;3.50;;
5539;SDS011;2792;52.452;9.752;2024-03-02T14:04:48;4.20;;;3.47;;
5539;SDS011;2792;52.452;9.752;2024-03-02T14:07:15;3.40;;;3.10;;
5539;SDS011;2792;52.452;9.752;2024-03-02T14:09:42;3.60;;;3.30;;
5539;SDS011;2792;52.452;9.752;2024-03-02T14:12:10;3.07;;;2.77;;
5539;SDS011;2792;52.452;9.752;2024-03-02T14:14:38;4.30;;;3.30;;
5539;SDS011;2792;52.452;9.752;2024-03-02T14:17:04;3.33;;;3.03;;
5539;SDS011;2792;52.452;9.752;2024-03-02T14:19:31;4.13;;;3.50;;
5539;SDS011;2792;52.452;9.752;2024-03-02T14:21:58;3.90;;;3.40;;
5539;SDS011;2792;52.452;9.752;2024-03-02T14:24:25;4.00;;;3.60;;
5539;SDS011;2792;52.452;9.752;2024-03-02T14:26:53;3.93;;;3.63;;
5539;SDS011;2792;52.452;9.752;2024-03-02T14:29:21;3.20;;;2.90;;
5539;SDS011;2792;52.452;9.752;2024-03-02T14:31:47;4.13;;;3.70;;
5539;SDS011;2792;52.452;9.752;2024-03-02T14:34:14;3.83;;;3.43;;
5539;SDS011;2792;52.452;9.752;2024-03-02T14:36:40;4.13;;;3.73;;
5539;SDS011;2792;52.452;9.752;2024-03-02T14:39:08;3.40;;;3.10;;
5539;SDS011;2792;52.452;9.752;2024-03-02T14:41:35;3.60;;;2.97;;
5539;SDS011;2792;52.452;9.752;2024-03-02T14:44:01;3.40;;;3.00;;
5539;SDS011;2792;52.452;9.752;2024-03-02T14:46:29;3.73;;;3.40;;
5539;SDS011;2792;52.452;9.752;2024-03-02T14:48:56;3.33;;;2.93;;
5539;SDS011;2792;52.452;9.752;2024-03-02T14:51:23;3.10;;;2.80;;
5539;SDS011;2792;52.452;9.752;2024-03-02T14:53:49;3.90;;;3.33;;
5539;SDS011;2792;52.452;9.752;2024-03-02T14:56:17;4.00;;;3.60;;
5539;SDS011;2792;52.452;9.752;2024-03-02T14:58:43;4.00;;;3.40;;
5539;SDS011;2792;52.452;9.752;2024-03-02T15:01:10;5.63;;;3.83;;
5539;SDS011;2792;52.452;9.752;2024-03-02T15:03:38;3.67;;;3.37;;
5539;SDS011;2792;52.452;9.752;2024-03-02T15:06:05;3.50;;;3.20;;
5539;SDS011;2792;52.452;9.752;2024-03-02T15:08:32;4.00;;;3.57;;
5539;SDS011;2792;52.452;9.752;2024-03-02T15:10:59;5.20;;;3.93;;
5539;SDS011;2792;52.452;9.752;2024-03-02T15:13:26;4.63;;;3.70;;
5539;SDS011;2792;52.452;9.752;2024-03-02T15:15:52;4.67;;;4.20;;
5539;SDS011;2792;52.452;9.752;2024-03-02T15:18:19;4.10;;;3.60;;
5539;SDS011;2792;52.452;9.752;2024-03-02T15:20:47;4.67;;;3.80;;
5539;SDS011;2792;52.452;9.752;2024-03-02T15:23:13;5.30;;;4.40;;
5539;SDS011;2792;52.452;9.752;2024-03-02T15:25:40;5.20;;;3.77;;
5539;SDS011;2792;52.452;9.752;2024-03-02T15:28:06;4.47;;;3.60;;
5539;SDS011;2792;52.452;9.752;2024-03-02T15:30:33;4.10;;;3.63;;